< < Back
Terminal Aerodrome Forecast


Current Version              Previous Versions:   1  2  3  4  5  6  7  8  9  

Terminal Aerodrome Forecast

454
FTUS42 KTAE 300520
TAFABY
TAF
KABY 300520Z 3006/3106 VRB03KT P6SM SKC
     FM301400 13005KT P6SM FEW050=



Latest METAR

641
SAUS70 KWBC 300600
MTRABY
METAR KABY 300553Z AUTO 15003KT 10SM CLR 22/17 A3013 RMK AO2 SLP200
T02220172 10294 20222 50000


USA.gov is the U.S. government's official web portal to all federal, state and local government web resources and services.